createdAt,value
2023-05-01T00:01:54.907Z,95808.56
2023-05-01T00:04:22.543Z,95804.69
2023-05-01T00:06:49.141Z,95804.69
2023-05-01T00:09:16.379Z,95800.34
2023-05-01T00:11:42.851Z,95800.97
2023-05-01T00:14:09.397Z,95794.34
2023-05-01T00:16:36.595Z,95790.63
2023-05-01T00:19:04.698Z,95799.16
2023-05-01T00:21:32.504Z,95793.19
2023-05-01T00:23:59.020Z,95792.22
2023-05-01T00:26:29.737Z,95787.84
2023-05-01T00:28:56.315Z,95780.59
2023-05-01T00:31:25.521Z,95785.91
2023-05-01T00:33:52.388Z,95779.44
2023-05-01T00:36:18.968Z,95775.06
2023-05-01T00:38:46.370Z,95779.44
2023-05-01T00:41:12.923Z,95776.97
2023-05-01T00:43:39.387Z,95776.19
2023-05-01T00:46:06.224Z,95775.56
2023-05-01T00:48:32.801Z,95772.31
2023-05-01T00:51:01.741Z,95771.00
2023-05-01T00:53:29.800Z,95770.34
2023-05-01T00:55:58.246Z,95772.72
2023-05-01T00:58:24.821Z,95769.63
2023-05-01T01:00:52.400Z,95764.78
2023-05-01T01:03:19.617Z,95763.16
2023-05-01T01:06:04.859Z,95757.53
2023-05-01T01:08:42.125Z,95751.91
2023-05-01T01:11:08.568Z,95749.56
2023-05-01T01:14:00.203Z,95743.94
2023-05-01T01:16:34.452Z,95743.94
2023-05-01T01:19:22.344Z,95741.69
2023-05-01T01:21:55.516Z,95738.94
2023-05-01T01:24:46.597Z,95735.41
2023-05-01T01:27:54.652Z,95738.44
2023-05-01T01:30:47.227Z,95722.50
2023-05-01T01:33:44.407Z,95730.13
2023-05-01T01:36:17.747Z,95721.56
2023-05-01T01:38:46.965Z,95717.72
2023-05-01T01:41:24.034Z,95719.66
2023-05-01T01:44:01.295Z,95720.78
2023-05-01T01:46:28.795Z,95718.63
2023-05-01T01:48:57.412Z,95723.63
2023-05-01T01:51:27.618Z,95717.66
2023-05-01T01:53:58.052Z,95714.44
2023-05-01T01:56:27.908Z,95706.84
2023-05-01T01:58:55.446Z,95714.59
2023-05-01T02:01:23.375Z,95711.63
2023-05-01T02:03:51.941Z,95704.22
2023-05-01T02:06:20.337Z,95707.50
2023-05-01T02:08:49.210Z,95700.72
2023-05-01T02:11:21.107Z,95701.06
2023-05-01T02:13:49.273Z,95698.84
2023-05-01T02:16:16.676Z,95697.72
2023-05-01T02:18:46.215Z,95693.38
2023-05-01T02:21:14.960Z,95692.84
2023-05-01T02:23:41.973Z,95680.91
2023-05-01T02:26:17.028Z,95688.34
2023-05-01T02:28:44.304Z,95690.41
2023-05-01T02:31:11.480Z,95686.38
2023-05-01T02:33:37.996Z,95677.66
2023-05-01T02:36:05.278Z,95681.22
2023-05-01T02:38:32.612Z,95674.63
2023-05-01T02:41:00.824Z,95669.44
2023-05-01T02:43:28.831Z,95674.09
2023-05-01T02:45:57.274Z,95670.38
2023-05-01T02:48:27.565Z,95668.44
2023-05-01T02:50:56.072Z,95666.03
2023-05-01T02:53:22.848Z,95668.44
2023-05-01T02:55:50.482Z,95673.13
2023-05-01T02:58:19.428Z,95680.53
2023-05-01T03:00:48.331Z,95672.94
2023-05-01T03:03:15.892Z,95659.09
2023-05-01T03:05:42.941Z,95660.03
2023-05-01T03:08:11.302Z,95666.31
2023-05-01T03:10:42.721Z,95667.75
2023-05-01T03:13:10.837Z,95662.59
2023-05-01T03:15:38.433Z,95670.00
2023-05-01T03:18:05.390Z,95652.75
2023-05-01T03:20:31.926Z,95657.44
2023-05-01T03:22:59.352Z,95659.69
2023-05-01T03:25:26.211Z,95655.97
2023-05-01T03:27:54.939Z,95661.75
2023-05-01T03:30:21.810Z,95646.63
2023-05-01T03:32:48.310Z,95649.53
2023-05-01T03:35:14.993Z,95649.72
2023-05-01T03:37:41.877Z,95646.66
2023-05-01T03:40:08.926Z,95646.19
2023-05-01T03:42:35.465Z,95640.88
2023-05-01T03:45:02.011Z,95636.06
2023-05-01T03:47:29.813Z,95636.53
2023-05-01T03:49:59.521Z,95636.06
2023-05-01T03:52:26.514Z,95636.38
2023-05-01T03:54:53.359Z,95632.50
2023-05-01T03:57:23.665Z,95639.91
2023-05-01T03:59:50.306Z,95639.44
2023-05-01T04:02:16.859Z,95640.56
2023-05-01T04:04:43.444Z,95642.81
2023-05-01T04:07:10.122Z,95642.97
2023-05-01T04:09:36.571Z,95651.81
2023-05-01T04:12:03.184Z,95641.00
2023-05-01T04:14:29.709Z,95645.19
2023-05-01T04:16:56.643Z,95641.16
2023-05-01T04:19:23.570Z,95650.00
2023-05-01T04:21:50.086Z,95642.09
2023-05-01T04:24:17.135Z,95645.16
2023-05-01T04:26:43.743Z,95645.47
2023-05-01T04:29:10.293Z,95650.94
2023-05-01T04:31:36.932Z,95652.88
2023-05-01T04:34:03.754Z,95654.00
2023-05-01T04:36:32.922Z,95649.66
2023-05-01T04:38:59.482Z,95653.50
2023-05-01T04:41:25.966Z,95648.03
2023-05-01T04:43:52.503Z,95650.78
2023-05-01T04:46:19.068Z,95646.59
2023-05-01T04:48:45.740Z,95646.59
2023-05-01T04:51:12.664Z,95644.34
2023-05-01T04:53:39.148Z,95652.06
2023-05-01T04:56:05.953Z,95643.53
2023-05-01T04:58:32.586Z,95645.97
2023-05-01T05:01:00.249Z,95643.72
2023-05-01T05:03:27.298Z,95654.66
2023-05-01T05:05:54.078Z,95644.53
2023-05-01T05:08:20.550Z,95654.84
2023-05-01T05:10:47.142Z,95663.06
2023-05-01T05:13:13.653Z,95656.44
2023-05-01T05:15:40.213Z,95652.91
2023-05-01T05:18:06.758Z,95659.69
2023-05-01T05:20:33.310Z,95662.91
2023-05-01T05:23:03.904Z,95654.69
2023-05-01T05:25:30.402Z,95656.31
2023-05-01T05:27:56.952Z,95652.44
2023-05-01T05:30:23.371Z,95653.75
2023-05-01T05:32:49.969Z,95657.28
2023-05-01T05:35:16.691Z,95650.69
2023-05-01T05:37:45.954Z,95659.38
2023-05-01T05:40:13.015Z,95654.41
2023-05-01T05:42:39.480Z,95654.88
2023-05-01T05:45:07.267Z,95646.34
2023-05-01T05:47:33.818Z,95649.25
2023-05-01T05:50:00.949Z,95639.59
2023-05-01T05:52:28.609Z,95639.44
2023-05-01T05:54:55.071Z,95642.34
2023-05-01T05:57:21.631Z,95643.84
2023-05-01T05:59:48.180Z,95635.78
2023-05-01T06:02:15.348Z,95636.13
2023-05-01T06:04:41.981Z,95634.88
2023-05-01T06:07:08.593Z,95639.53
2023-05-01T06:09:35.735Z,95638.56
2023-05-01T06:12:03.558Z,95628.41
2023-05-01T06:14:30.038Z,95633.25
2023-05-01T06:16:57.756Z,95630.69
2023-05-01T06:19:24.342Z,95630.84
2023-05-01T06:21:51.199Z,95630.34
2023-05-01T06:24:17.841Z,95626.47
2023-05-01T06:26:44.445Z,95627.13
2023-05-01T06:29:11.422Z,95621.66
2023-05-01T06:31:38.041Z,95630.84
2023-05-01T06:34:04.540Z,95622.59
2023-05-01T06:36:31.464Z,95621.63
2023-05-01T06:38:58.059Z,95625.19
2023-05-01T06:41:25.753Z,95627.28
2023-05-01T06:43:52.321Z,95630.50
2023-05-01T06:46:18.917Z,95634.38
2023-05-01T06:48:46.433Z,95632.41
2023-05-01T06:51:15.923Z,95638.13
2023-05-01T06:53:43.455Z,95641.63
2023-05-01T06:56:09.948Z,95641.13
2023-05-01T06:58:36.438Z,95638.69
2023-05-01T07:01:03.432Z,95635.59
2023-05-01T07:03:30.317Z,95636.25
2023-05-01T07:05:57.235Z,95634.34
2023-05-01T07:08:24.269Z,95627.69
2023-05-01T07:10:51.273Z,95629.06
2023-05-01T07:13:22.049Z,95623.44
2023-05-01T07:15:49.139Z,95628.97
2023-05-01T07:18:17.078Z,95624.34
2023-05-01T07:20:43.643Z,95622.78
2023-05-01T07:23:10.579Z,95616.50
2023-05-01T07:25:47.280Z,95618.03
2023-05-01T07:28:13.840Z,95634.31
2023-05-01T07:30:40.468Z,95619.63
2023-05-01T07:33:07.141Z,95624.97
2023-05-01T07:35:33.782Z,95624.75
2023-05-01T07:38:00.643Z,95622.84
2023-05-01T07:40:27.326Z,95627.84
2023-05-01T07:42:54.653Z,95632.06
2023-05-01T07:45:21.395Z,95624.22
2023-05-01T07:47:48.054Z,95626.41
2023-05-01T07:50:14.737Z,95628.47
2023-05-01T07:52:41.263Z,95617.41
2023-05-01T07:55:08.862Z,95617.53
2023-05-01T07:57:36.947Z,95613.53
2023-05-01T08:00:04.071Z,95619.00
2023-05-01T08:02:30.710Z,95609.69
2023-05-01T08:04:57.435Z,95602.47
2023-05-01T08:07:24.394Z,95620.25
2023-05-01T08:09:50.890Z,95605.84
2023-05-01T08:12:17.376Z,95612.13
2023-05-01T08:14:44.048Z,95601.56
2023-05-01T08:17:11.587Z,95600.09
2023-05-01T08:19:38.056Z,95598.59
2023-05-01T08:22:04.533Z,95601.56
2023-05-01T08:24:35.360Z,95599.59
2023-05-01T08:27:02.472Z,95591.38
2023-05-01T08:29:28.975Z,95594.47
2023-05-01T08:31:56.996Z,95597.53
2023-05-01T08:34:24.089Z,95592.75
2023-05-01T08:36:50.899Z,95587.91
2023-05-01T08:39:17.368Z,95593.91
2023-05-01T08:41:47.338Z,95595.84
2023-05-01T08:44:14.974Z,95594.38
2023-05-01T08:46:46.614Z,95595.59
2023-05-01T08:49:16.755Z,95597.09
2023-05-01T08:51:52.491Z,95595.84
2023-05-01T08:54:20.840Z,95590.84
2023-05-01T08:56:47.695Z,95591.72
2023-05-01T08:59:16.103Z,95592.78
2023-05-01T09:01:44.344Z,95590.84
2023-05-01T09:04:12.135Z,95586.22
2023-05-01T09:06:41.615Z,95589.06
2023-05-01T09:09:08.283Z,95589.63
2023-05-01T09:11:34.858Z,95586.00
2023-05-01T09:14:05.382Z,95589.34
2023-05-01T09:16:32.248Z,95587.41
2023-05-01T09:18:59.541Z,95584.16
2023-05-01T09:21:29.036Z,95582.34
2023-05-01T09:23:55.569Z,95586.78
2023-05-01T09:26:22.047Z,95585.50
2023-05-01T09:28:48.803Z,95573.50
2023-05-01T09:31:29.977Z,95589.81
2023-05-01T09:33:58.837Z,95580.50
2023-05-01T09:36:31.631Z,95579.34
2023-05-01T09:39:00.146Z,95579.47
2023-05-01T09:41:28.099Z,95576.66
2023-05-01T09:43:56.499Z,95574.50
2023-05-01T09:46:24.951Z,95585.97
2023-05-01T09:49:03.227Z,95581.78
2023-05-01T09:51:35.019Z,95584.38
2023-05-01T09:54:03.949Z,95585.75
2023-05-01T09:56:33.290Z,95583.50
2023-05-01T09:59:17.229Z,95576.13
2023-05-01T10:01:46.538Z,95579.69
2023-05-01T10:04:13.917Z,95566.56
2023-05-01T10:06:41.974Z,95568.72
2023-05-01T10:09:17.078Z,95564.16
2023-05-01T10:11:49.854Z,95561.09
2023-05-01T10:14:16.627Z,95576.75
2023-05-01T10:16:43.375Z,95570.72
2023-05-01T10:19:10.836Z,95566.41
2023-05-01T10:21:37.863Z,95573.69
2023-05-01T10:24:05.841Z,95570.19
2023-05-01T10:26:34.840Z,95585.19
2023-05-01T10:29:02.270Z,95581.34
2023-05-01T10:31:29.639Z,95582.00
2023-05-01T10:33:57.999Z,95576.22
2023-05-01T10:36:41.652Z,95576.22
2023-05-01T10:39:34.628Z,95580.16
2023-05-01T10:42:03.844Z,95583.38
2023-05-01T10:44:30.870Z,95600.13
2023-05-01T10:46:57.764Z,95599.34
2023-05-01T10:49:24.609Z,95601.16
2023-05-01T10:52:00.319Z,95617.47
2023-05-01T10:54:27.397Z,95621.13
2023-05-01T10:56:55.961Z,95624.34
2023-05-01T10:59:22.671Z,95642.75
2023-05-01T11:01:52.071Z,95646.69
2023-05-01T11:04:27.565Z,95649.16
2023-05-01T11:07:05.975Z,95662.88
2023-05-01T11:10:05.619Z,95657.94
2023-05-01T11:12:51.740Z,95660.34
2023-05-01T11:15:31.427Z,95662.16
2023-05-01T11:17:59.521Z,95657.25
2023-05-01T11:20:26.199Z,95672.19
2023-05-01T11:22:54.362Z,95671.25
2023-05-01T11:25:27.238Z,95676.31
2023-05-01T11:28:03.847Z,95666.44
2023-05-01T11:30:40.602Z,95663.69
2023-05-01T11:33:10.746Z,95653.03
2023-05-01T11:35:38.709Z,95655.13
2023-05-01T11:38:05.513Z,95660.69
2023-05-01T11:40:35.357Z,95650.59
2023-05-01T11:43:09.279Z,95625.19
2023-05-01T11:45:37.615Z,95625.13
2023-05-01T11:48:05.531Z,95610.97
2023-05-01T11:50:37.315Z,95615.00
2023-05-01T11:53:11.704Z,95611.91
2023-05-01T11:55:38.790Z,95599.06
2023-05-01T11:58:05.431Z,95598.25
2023-05-01T12:00:34.075Z,95598.31
2023-05-01T12:03:02.111Z,95593.28
2023-05-01T12:05:30.868Z,95593.88
2023-05-01T12:08:10.144Z,95584.00
2023-05-01T12:10:37.846Z,95572.06
2023-05-01T12:13:06.595Z,95568.31
2023-05-01T12:15:37.280Z,95566.72
2023-05-01T12:18:05.681Z,95571.19
2023-05-01T12:20:47.321Z,95577.63
2023-05-01T12:23:16.244Z,95565.69
2023-05-01T12:25:44.030Z,95562.66
2023-05-01T12:28:14.162Z,95563.00
2023-05-01T12:30:42.034Z,95565.91
2023-05-01T12:33:12.860Z,95562.66
2023-05-01T12:35:40.999Z,95573.00
2023-05-01T12:38:16.187Z,95575.25
2023-05-01T12:41:00.506Z,95582.28
2023-05-01T12:43:35.156Z,95576.22
2023-05-01T12:46:04.002Z,95593.91
2023-05-01T12:48:34.368Z,95588.81
2023-05-01T12:51:01.279Z,95606.38
2023-05-01T12:53:28.775Z,95624.56
2023-05-01T12:55:57.408Z,95640.66
2023-05-01T12:58:24.881Z,95652.59
2023-05-01T13:00:53.555Z,95638.97
2023-05-01T13:03:25.968Z,95639.19
2023-05-01T13:05:59.881Z,95656.78
2023-05-01T13:08:32.085Z,95671.97
2023-05-01T13:11:10.322Z,95679.84
2023-05-01T13:13:37.678Z,95690.22
2023-05-01T13:16:10.321Z,95698.94
2023-05-01T13:18:47.470Z,95693.97
2023-05-01T13:21:19.374Z,95688.63
2023-05-01T13:24:06.397Z,95680.19
2023-05-01T13:26:35.796Z,95678.72
2023-05-01T13:29:05.651Z,95670.44
2023-05-01T13:31:32.401Z,95670.72
2023-05-01T13:33:59.847Z,95665.22
2023-05-01T13:36:33.560Z,95671.59
2023-05-01T13:39:00.331Z,95678.31
2023-05-01T13:41:27.618Z,95664.00
2023-05-01T13:43:56.281Z,95652.50
2023-05-01T13:46:24.824Z,95641.75
2023-05-01T13:48:51.987Z,95636.41
2023-05-01T13:51:23.326Z,95641.41
2023-05-01T13:53:50.587Z,95624.06
2023-05-01T13:56:17.384Z,95620.94
2023-05-01T13:58:44.246Z,95631.06
2023-05-01T14:01:16.307Z,95630.81
2023-05-01T14:03:43.442Z,95630.25
2023-05-01T14:06:20.808Z,95623.44
2023-05-01T14:08:49.147Z,95633.09
2023-05-01T14:11:15.935Z,95626.22
2023-05-01T14:13:47.602Z,95640.81
2023-05-01T14:16:24.595Z,95650.00
2023-05-01T14:18:54.530Z,95651.03
2023-05-01T14:21:27.389Z,95645.75
2023-05-01T14:23:55.232Z,95650.13
2023-05-01T14:26:24.024Z,95643.47
2023-05-01T14:28:51.082Z,95642.78
2023-05-01T14:31:25.190Z,95639.63
2023-05-01T14:33:59.950Z,95642.63
2023-05-01T14:36:28.525Z,95644.81
2023-05-01T14:39:02.230Z,95633.59
2023-05-01T14:41:30.014Z,95637.72
2023-05-01T14:43:57.131Z,95640.69
2023-05-01T14:46:31.976Z,95643.22
2023-05-01T14:49:00.239Z,95658.03
2023-05-01T14:51:28.509Z,95655.84
2023-05-01T14:53:55.183Z,95663.22
2023-05-01T14:56:21.679Z,95665.75
2023-05-01T14:58:49.437Z,95663.69
2023-05-01T15:01:16.842Z,95680.75
2023-05-01T15:03:44.012Z,95681.72
2023-05-01T15:06:11.264Z,95684.69
2023-05-01T15:08:38.239Z,95690.41
2023-05-01T15:11:05.107Z,95679.41
2023-05-01T15:13:31.894Z,95689.41
2023-05-01T15:15:58.779Z,95687.22
2023-05-01T15:18:25.559Z,95673.22
2023-05-01T15:20:52.057Z,95687.09
2023-05-01T15:23:18.728Z,95689.97
2023-05-01T15:25:45.368Z,95696.63
2023-05-01T15:28:13.617Z,95700.66
2023-05-01T15:30:44.897Z,95709.72
2023-05-01T15:33:11.648Z,95728.34
2023-05-01T15:35:38.613Z,95741.56
2023-05-01T15:38:05.297Z,95730.56
2023-05-01T15:40:32.883Z,95733.03
2023-05-01T15:42:59.439Z,95740.94
2023-05-01T15:45:26.104Z,95743.91
2023-05-01T15:47:52.906Z,95738.00
2023-05-01T15:50:19.461Z,95732.38
2023-05-01T15:52:46.975Z,95733.72
2023-05-01T15:55:13.510Z,95725.00
2023-05-01T15:57:40.123Z,95716.78
2023-05-01T16:00:08.689Z,95711.81
2023-05-01T16:02:35.196Z,95695.25
2023-05-01T16:05:01.750Z,95699.84
2023-05-01T16:07:29.615Z,95694.22
2023-05-01T16:09:57.525Z,95696.28
2023-05-01T16:12:24.626Z,95702.41
2023-05-01T16:14:51.260Z,95704.00
2023-05-01T16:17:18.490Z,95698.84
2023-05-01T16:19:45.406Z,95699.16
2023-05-01T16:22:13.999Z,95715.31
2023-05-01T16:24:40.557Z,95701.53
2023-05-01T16:27:07.491Z,95702.50
2023-05-01T16:29:34.813Z,95693.31
2023-05-01T16:32:03.936Z,95689.72
2023-05-01T16:34:30.551Z,95689.38
2023-05-01T16:36:57.133Z,95691.59
2023-05-01T16:39:23.677Z,95687.22
2023-05-01T16:41:54.762Z,95693.44
2023-05-01T16:44:22.466Z,95690.44
2023-05-01T16:46:57.039Z,95697.81
2023-05-01T16:49:25.092Z,95683.00
2023-05-01T16:51:57.100Z,95699.31
2023-05-01T16:54:25.094Z,95703.91
2023-05-01T16:56:51.804Z,95698.84
2023-05-01T16:59:18.335Z,95699.19
2023-05-01T17:01:45.004Z,95695.22
2023-05-01T17:04:12.902Z,95706.34
2023-05-01T17:06:39.618Z,95713.31
2023-05-01T17:09:06.459Z,95719.66
2023-05-01T17:11:32.954Z,95720.25
2023-05-01T17:13:59.513Z,95724.88
2023-05-01T17:16:26.246Z,95735.59
2023-05-01T17:18:52.918Z,95741.38
2023-05-01T17:21:19.633Z,95747.72
2023-05-01T17:23:46.184Z,95747.25
2023-05-01T17:26:15.865Z,95741.66
2023-05-01T17:28:42.372Z,95750.91
2023-05-01T17:31:09.352Z,95751.91
2023-05-01T17:33:35.900Z,95763.25
2023-05-01T17:36:02.883Z,95761.31
2023-05-01T17:38:29.364Z,95766.97
2023-05-01T17:40:55.928Z,95758.59
2023-05-01T17:43:22.642Z,95761.97
2023-05-01T17:45:50.110Z,95771.06
2023-05-01T17:48:17.187Z,95777.88
2023-05-01T17:50:44.145Z,95779.13
2023-05-01T17:53:10.856Z,95781.38
2023-05-01T17:55:38.954Z,95788.50
2023-05-01T17:58:07.048Z,95786.06
2023-05-01T18:00:33.686Z,95805.16
2023-05-01T18:03:00.413Z,95795.47
2023-05-01T18:05:28.283Z,95796.88
2023-05-01T18:07:54.708Z,95803.03
2023-05-01T18:10:21.216Z,95806.59
2023-05-01T18:12:49.794Z,95809.69
2023-05-01T18:15:22.011Z,95811.94
2023-05-01T18:17:49.730Z,95811.63
2023-05-01T18:20:16.386Z,95813.22
2023-05-01T18:22:42.987Z,95820.00
2023-05-01T18:25:09.644Z,95821.16
2023-05-01T18:27:41.256Z,95824.22
2023-05-01T18:30:08.685Z,95825.69
2023-05-01T18:32:47.529Z,95829.06
2023-05-01T18:35:16.581Z,95830.69
2023-05-01T18:37:44.471Z,95841.19
2023-05-01T18:40:12.061Z,95832.47
2023-05-01T18:42:41.685Z,95837.00
2023-05-01T18:45:10.219Z,95843.31
2023-05-01T18:47:36.840Z,95841.72
2023-05-01T18:50:03.944Z,95851.78
2023-05-01T18:52:30.933Z,95836.91
2023-05-01T18:54:57.492Z,95838.03
2023-05-01T18:57:24.081Z,95839.63
2023-05-01T18:59:50.586Z,95843.03
2023-05-01T19:02:17.079Z,95844.50
2023-05-01T19:04:56.761Z,95851.75
2023-05-01T19:07:25.195Z,95857.56
2023-05-01T19:09:51.674Z,95854.78
2023-05-01T19:12:18.175Z,95868.94
2023-05-01T19:14:44.636Z,95874.03
2023-05-01T19:17:11.284Z,95874.28
2023-05-01T19:19:37.808Z,95879.06
2023-05-01T19:22:04.263Z,95882.50
2023-05-01T19:24:30.837Z,95883.69
2023-05-01T19:26:57.299Z,95890.53
2023-05-01T19:29:25.792Z,95890.41
2023-05-01T19:31:52.443Z,95907.03
2023-05-01T19:34:20.153Z,95895.44
2023-05-01T19:36:46.697Z,95895.94
2023-05-01T19:39:13.192Z,95902.22
2023-05-01T19:41:39.625Z,95909.44
2023-05-01T19:44:06.923Z,95908.47
2023-05-01T19:46:33.591Z,95909.44
2023-05-01T19:49:00.125Z,95911.19
2023-05-01T19:51:28.444Z,95913.38
2023-05-01T19:53:54.918Z,95917.22
2023-05-01T19:56:21.396Z,95925.31
2023-05-01T19:58:47.889Z,95926.31
2023-05-01T20:01:14.447Z,95922.91
2023-05-01T20:03:41.195Z,95936.53
2023-05-01T20:06:07.772Z,95941.63
2023-05-01T20:08:34.380Z,95942.06
2023-05-01T20:11:01.771Z,95948.78
2023-05-01T20:13:28.332Z,95961.34
2023-05-01T20:15:57.006Z,95953.25
2023-05-01T20:18:23.598Z,95962.75
2023-05-01T20:20:50.221Z,95962.94
2023-05-01T20:23:20.090Z,95967.19
2023-05-01T20:25:51.753Z,95975.78
2023-05-01T20:28:18.970Z,95974.16
2023-05-01T20:30:46.810Z,95984.63
2023-05-01T20:33:14.353Z,95981.81
2023-05-01T20:35:40.990Z,95973.91
2023-05-01T20:38:08.678Z,95979.38
2023-05-01T20:40:37.129Z,95982.63
2023-05-01T20:43:03.877Z,95984.03
2023-05-01T20:45:30.927Z,95994.19
2023-05-01T20:47:58.474Z,95993.47
2023-05-01T20:50:25.990Z,96002.63
2023-05-01T20:52:54.806Z,95998.38
2023-05-01T20:55:22.087Z,96011.03
2023-05-01T20:57:48.903Z,96001.00
2023-05-01T21:00:15.524Z,96007.88
2023-05-01T21:02:42.418Z,96018.31
2023-05-01T21:05:10.317Z,96016.09
2023-05-01T21:07:38.677Z,96017.09
2023-05-01T21:10:06.810Z,96023.19
2023-05-01T21:12:33.431Z,96023.78
2023-05-01T21:15:00.582Z,96028.16
2023-05-01T21:17:27.745Z,96021.38
2023-05-01T21:19:54.271Z,96030.50
2023-05-01T21:22:22.423Z,96028.56
2023-05-01T21:24:54.551Z,96024.63
2023-05-01T21:27:22.159Z,96031.31
2023-05-01T21:29:57.086Z,96037.56
2023-05-01T21:32:39.873Z,96032.22
2023-05-01T21:35:07.772Z,96036.66
2023-05-01T21:37:34.278Z,96050.44
2023-05-01T21:40:01.870Z,96043.44
2023-05-01T21:45:10.484Z,96054.75
2023-05-01T21:47:39.406Z,96057.28
2023-05-01T21:50:10.275Z,96050.84
2023-05-01T21:52:37.184Z,96060.25
2023-05-01T21:55:04.616Z,96070.06
2023-05-01T21:57:31.823Z,96066.22
2023-05-01T22:00:01.845Z,96069.25
2023-05-01T22:02:35.619Z,96074.50
2023-05-01T22:05:02.236Z,96067.84
2023-05-01T22:07:28.692Z,96069.47
2023-05-01T22:09:55.147Z,96074.13
2023-05-01T22:12:21.707Z,96078.41
2023-05-01T22:14:48.828Z,96079.44
2023-05-01T22:17:17.534Z,96072.78
2023-05-01T22:19:44.485Z,96079.78
2023-05-01T22:22:11.327Z,96084.34
2023-05-01T22:24:38.082Z,96085.47
2023-05-01T22:27:04.484Z,96077.03
2023-05-01T22:29:31.168Z,96086.16
2023-05-01T22:31:57.883Z,96083.50
2023-05-01T22:34:24.335Z,96087.13
2023-05-01T22:36:50.873Z,96087.94
2023-05-01T22:39:17.753Z,96086.59
2023-05-01T22:41:44.316Z,96090.13
2023-05-01T22:44:11.494Z,96094.59
2023-05-01T22:46:38.109Z,96091.72
2023-05-01T22:49:04.688Z,96086.03
2023-05-01T22:51:31.735Z,96081.56
2023-05-01T22:53:58.236Z,96092.69
2023-05-01T22:56:26.306Z,96096.63
2023-05-01T22:58:52.851Z,96098.03
2023-05-01T23:01:19.771Z,96100.84
2023-05-01T23:03:46.551Z,96102.97
2023-05-01T23:06:13.292Z,96105.03
2023-05-01T23:08:39.894Z,96103.72
2023-05-01T23:11:06.373Z,96112.19
2023-05-01T23:13:32.892Z,96111.75
2023-05-01T23:15:59.883Z,96108.31
2023-05-01T23:18:36.478Z,96116.06
2023-05-01T23:21:03.351Z,96115.03
2023-05-01T23:23:31.065Z,96115.09
2023-05-01T23:25:57.868Z,96113.41
2023-05-01T23:28:26.100Z,96124.53
2023-05-01T23:31:01.513Z,96124.09
2023-05-01T23:33:34.497Z,96128.31
2023-05-01T23:36:01.295Z,96126.97
2023-05-01T23:38:27.725Z,96130.81
2023-05-01T23:40:54.340Z,96134.38
2023-05-01T23:43:21.482Z,96129.56
2023-05-01T23:45:48.496Z,96138.25
2023-05-01T23:48:15.019Z,96130.63
2023-05-01T23:50:41.770Z,96136.34
2023-05-01T23:53:08.777Z,96130.38
2023-05-01T23:55:35.919Z,96137.13
2023-05-01T23:58:02.911Z,96135.28
